Time;durP1;ratioP1;P1;durP2;ratioP2;P2;SDS_P1;SDS_P2;PMS_P1;PMS_P2;Temp;Humidity;BMP_temperature;BMP_pressure;BME280_temperature;BME280_humidity;BME280_pressure;Samples;Min_cycle;Max_cycle;Signal;HPM_P1;HPM_P2
2023/01/25 00:00:41;;;;;;;29.47;15.13;;;;;;;;;;5048363;28;20025;-68
2023/01/25 00:03:06;;;;;;;35.83;18.07;;;;;;;-145.18;100.00;114074.00;5046775;28;20021;-68
2023/01/25 00:05:32;;;;;;;38.83;18.07;;;;;;;-145.18;100.00;114074.00;5043020;28;20067;-68
2023/01/25 00:07:57;;;;;;;33.03;15.17;;;;;;;-145.18;100.00;148167.88;5050430;28;20090;-68
2023/01/25 00:10:23;;;;;;;31.43;15.13;;;;;;;-145.18;100.00;114074.00;5050072;28;20389;-68
2023/01/25 00:12:48;;;;;;;34.10;18.43;;;;;;;-145.18;100.00;114074.00;5051085;28;20108;-68
2023/01/25 00:15:14;;;;;;;35.23;18.93;;;;;;;-145.18;100.00;114074.00;5048134;28;20484;-68
2023/01/25 00:17:39;;;;;;;40.07;20.00;;;;;;;-145.18;100.00;114074.00;5047358;28;20020;-67
2023/01/25 00:20:05;;;;;;;37.50;20.03;;;;;;;-145.18;100.00;114074.00;5050014;28;20021;-67
2023/01/25 00:22:31;;;;;;;36.90;18.73;;;;;;;;;;5048255;28;20151;-67
2023/01/25 00:24:56;;;;;;;38.53;18.43;;;;;;;-145.18;100.00;114074.00;5048324;28;20520;-67
2023/01/25 00:27:21;;;;;;;37.07;16.83;;;;;;;;;;5047321;28;20396;-67
2023/01/25 00:29:47;;;;;;;37.57;17.90;;;;;;;-145.18;100.00;114074.00;5050989;28;20077;-68
2023/01/25 00:32:12;;;;;;;31.70;13.43;;;;;;;;;;5045179;28;20025;-69
2023/01/25 00:34:50;;;;;;;32.90;15.20;;;;;;;-145.18;100.00;114074.00;5051004;28;20036;-69
2023/01/25 00:37:35;;;;;;;36.20;19.33;;;;;;;-145.18;100.00;114074.00;5049147;28;20383;-69
2023/01/25 00:40:00;;;;;;;22.30;8.93;;;;;;;;;;5050441;28;20405;-68
2023/01/25 00:42:26;;;;;;;34.50;18.13;;;;;;;-145.18;100.00;114074.00;5048082;28;20033;-68
2023/01/25 00:44:51;;;;;;;36.77;18.63;;;;;;;-145.18;100.00;114074.00;5051492;28;20476;-69
2023/01/25 00:47:17;;;;;;;37.07;19.40;;;;;;;-145.18;100.00;114074.00;5049237;28;20025;-67
2023/01/25 00:49:44;;;;;;;42.13;20.63;;;;;;;-145.18;100.00;114074.00;5046877;28;20017;-67
2023/01/25 00:52:10;;;;;;;41.73;19.30;;;;;;;-145.18;100.00;114074.00;5050141;28;20469;-68
2023/01/25 00:54:35;;;;;;;36.93;16.87;;;;;;;-145.18;100.00;114074.00;5051218;28;20028;-68
2023/01/25 00:57:00;;;;;;;37.30;17.37;;;;;;;-145.18;100.00;114074.00;5049470;28;20104;-68
2023/01/25 00:59:26;;;;;;;26.53;11.43;;;;;;;-145.18;100.00;114074.00;5049626;28;20024;-68
2023/01/25 01:01:53;;;;;;;39.57;16.90;;;;;;;-145.18;100.00;114074.00;5049058;28;20032;-68
2023/01/25 01:04:18;;;;;;;30.80;13.70;;;;;;;;;;5044677;28;20151;-67
2023/01/25 01:06:44;;;;;;;34.83;15.17;;;;;;;;;;5050669;28;20112;-68
2023/01/25 01:09:14;;;;;;;26.67;11.70;;;;;;;-145.18;100.00;114074.00;5047879;28;21077;-68
2023/01/25 01:11:40;;;;;;;37.70;17.87;;;;;;;-145.18;100.00;114074.00;5044128;28;20485;-69
2023/01/25 01:14:06;;;;;;;37.60;19.10;;;;;;;-145.18;100.00;114074.00;5048502;28;20029;-68
2023/01/25 01:16:31;;;;;;;41.67;20.37;;;;;;;-145.18;100.00;114074.00;5048213;28;20392;-68
2023/01/25 01:18:56;;;;;;;37.33;18.30;;;;;;;-145.18;100.00;114074.00;5037830;28;20033;-67
2023/01/25 01:21:22;;;;;;;38.90;18.77;;;;;;;-145.18;100.00;114074.00;5044776;28;20122;-67
2023/01/25 01:23:48;;;;;;;40.30;17.90;;;;;;;-145.18;100.00;114074.00;5050182;28;20021;-67
2023/01/25 01:26:14;;;;;;;43.00;19.40;;;;;;;;;;5048108;28;20489;-68
2023/01/25 01:28:40;;;;;;;41.20;19.83;;;;;;;;;;5046782;28;20115;-67
2023/01/25 01:31:32;;;;;;;44.07;20.80;;;;;;;-145.18;100.00;114074.00;5047732;28;20591;-69
2023/01/25 01:33:57;;;;;;;40.97;19.98;;;;;;;-145.18;100.00;114074.00;5041550;28;20033;-67
2023/01/25 01:36:24;;;;;;;34.33;15.90;;;;;;;;;;5049787;28;20033;-67
2023/01/25 01:38:49;;;;;;;37.97;18.87;;;;;;;;;;5047146;28;20121;-67
2023/01/25 01:41:14;;;;;;;41.73;21.13;;;;;;;;;;5031862;28;20801;-68
2023/01/25 01:43:40;;;;;;;43.90;20.67;;;;;;;;;;5046264;28;20036;-68
2023/01/25 01:46:34;;;;;;;43.17;20.83;;;;;;;-145.18;100.00;60484.78;5047586;28;20033;-68
2023/01/25 01:49:01;;;;;;;43.23;19.77;;;;;;;;;;5046510;28;20438;-66
2023/01/25 01:51:44;;;;;;;42.27;20.60;;;;;;;-145.18;100.00;60484.78;5048190;28;20511;-67
2023/01/25 01:54:19;;;;;;;44.23;20.73;;;;;;;;;;5046884;28;20028;-67
2023/01/25 01:57:03;;;;;;;43.83;20.87;;;;;;;-145.18;100.00;60484.78;5046015;28;20485;-67
2023/01/25 01:59:48;;;;;;;41.23;19.27;;;;;;;-145.18;100.00;60484.78;5048810;28;20029;-67
2023/01/25 02:02:14;;;;;;;36.13;15.87;;;;;;;-145.18;100.00;60484.78;5049440;28;20480;-67
2023/01/25 02:04:40;;;;;;;38.40;17.03;;;;;;;;;;5065625;23;20049;-68
2023/01/25 02:07:29;;;;;;;42.07;19.60;;;;;;;-145.18;100.00;60484.78;5062797;28;20028;-68
2023/01/25 02:09:55;;;;;;;36.47;15.83;;;;;;;-145.18;100.00;60484.78;5066458;28;20067;-68
2023/01/25 02:12:22;;;;;;;37.33;17.40;;;;;;;-145.18;100.00;60484.78;5068647;28;20119;-68
2023/01/25 02:14:50;;;;;;;42.70;20.80;;;;;;;-145.18;100.00;60484.78;5059926;28;20376;-68
2023/01/25 02:17:17;;;;;;;37.60;15.40;;;;;;;;;;5054563;28;20036;-68
2023/01/25 02:20:10;;;;;;;36.00;15.90;;;;;;;-145.18;100.00;60484.78;5062333;28;20151;-68
2023/01/25 02:22:47;;;;;;;44.10;20.00;;;;;;;-145.18;100.00;114074.00;5064347;28;20468;-68
2023/01/25 02:25:13;;;;;;;43.80;18.70;;;;;;;-145.18;100.00;114074.00;5063695;28;20369;-68
2023/01/25 02:27:45;;;;;;;43.67;18.90;;;;;;;;;;5059391;28;20039;-68
2023/01/25 02:30:10;;;;;;;43.83;18.60;;;;;;;-145.18;100.00;114074.00;5060788;28;20110;-68
2023/01/25 02:32:37;;;;;;;44.73;21.67;;;;;;;-145.18;100.00;60484.78;5065156;28;20445;-68
2023/01/25 02:35:02;;;;;;;45.17;20.73;;;;;;;;;;5063001;28;20104;-68
2023/01/25 02:37:27;;;;;;;49.83;22.73;;;;;;;;;;5064636;28;20151;-68
2023/01/25 02:39:53;;;;;;;49.93;22.57;;;;;;;;;;5067623;28;20025;-68
2023/01/25 02:42:18;;;;;;;42.60;18.67;;;;;;;;;;5054235;28;20024;-68
2023/01/25 02:44:44;;;;;;;45.03;21.17;;;;;;;-145.18;100.00;114074.00;5055079;28;20468;-68
2023/01/25 02:47:09;;;;;;;44.13;19.93;;;;;;;-145.18;100.00;114074.00;5064148;28;20086;-68
2023/01/25 02:49:35;;;;;;;39.03;15.90;;;;;;;-145.18;100.00;114074.00;5065365;28;20033;-68
2023/01/25 02:52:03;;;;;;;41.50;17.57;;;;;;;-145.18;100.00;60484.78;5064481;28;20401;-68
2023/01/25 02:54:28;;;;;;;50.77;22.70;;;;;;;-145.18;100.00;114074.00;5054935;28;20107;-68
2023/01/25 02:56:54;;;;;;;28.53;11.57;;;;;;;-145.18;100.00;114074.00;5066723;28;20104;-68
2023/01/25 02:59:20;;;;;;;57.77;24.97;;;;;;;-145.18;100.00;114074.00;5057255;28;20551;-68
2023/01/25 03:01:45;;;;;;;50.90;20.33;;;;;;;-145.18;100.00;114074.00;5058090;28;20038;-68
2023/01/25 03:04:11;;;;;;;51.73;21.97;;;;;;;-145.18;100.00;114074.00;5064887;28;20021;-68
2023/01/25 03:06:37;;;;;;;54.07;21.90;;;;;;;;;;5042137;28;20024;-67
2023/01/25 03:09:05;;;;;;;51.93;22.93;;;;;;;-145.18;100.00;114074.00;5040590;28;20028;-67
2023/01/25 03:11:30;;;;;;;53.17;23.83;;;;;;;-145.18;100.00;114074.00;5042714;28;20634;-68
2023/01/25 03:13:56;;;;;;;57.40;25.60;;;;;;;-145.18;100.00;114074.00;5028093;28;20017;-68
2023/01/25 03:16:21;;;;;;;60.03;26.50;;;;;;;;;;5051877;28;20029;-68
2023/01/25 03:18:46;;;;;;;58.03;25.97;;;;;;;-145.18;100.00;114074.00;5054813;28;20017;-68
2023/01/25 03:21:15;;;;;;;60.10;24.73;;;;;;;-145.18;100.00;114074.00;5053814;28;20080;-68
2023/01/25 03:23:42;;;;;;;54.23;24.27;;;;;;;-145.18;100.00;60484.78;5055555;28;20047;-68
2023/01/25 03:26:07;;;;;;;58.17;25.07;;;;;;;;;;5051086;28;20075;-68
2023/01/25 03:28:32;;;;;;;54.70;23.67;;;;;;;;;;5053087;28;20361;-68
2023/01/25 03:30:57;;;;;;;53.93;24.17;;;;;;;;;;5051136;28;20032;-70
2023/01/25 03:33:23;;;;;;;53.43;23.60;;;;;;;;;;5049387;28;20037;-67
2023/01/25 03:35:54;;;;;;;54.27;22.20;;;;;;;;;;5049467;28;20098;-68
2023/01/25 03:38:19;;;;;;;;;;;;;;;;;;5050346;28;20032;-68
2023/01/25 03:40:45;;;;;;;57.13;24.43;;;;;;;;;;5059334;28;19932;-68
2023/01/25 03:43:10;;;;;;;57.90;26.47;;;;;;;;;;5055380;28;20095;-68
2023/01/25 03:45:36;;;;;;;50.17;21.87;;;;;;;;;;5057979;28;20029;-68
2023/01/25 03:48:01;;;;;;;54.07;24.07;;;;;;;-145.18;100.00;114074.00;5046301;28;20036;-68
2023/01/25 03:50:26;;;;;;;49.33;21.20;;;;;;;-145.18;100.00;114074.00;5054089;28;20032;-67
2023/01/25 03:53:04;;;;;;;55.43;22.33;;;;;;;;;;5051439;28;20476;-67
2023/01/25 03:55:30;;;;;;;50.07;22.30;;;;;;;;;;5051238;28;20056;-67
2023/01/25 03:57:55;;;;;;;50.20;22.50;;;;;;;-145.18;100.00;60484.78;5051753;28;20467;-66
2023/01/25 04:00:21;;;;;;;49.43;22.60;;;;;;;-145.18;100.00;114074.00;5058117;28;20025;-67
2023/01/25 04:02:46;;;;;;;50.67;20.77;;;;;;;-145.18;100.00;60484.78;5049939;28;20013;-66
2023/01/25 04:05:11;;;;;;;56.40;24.03;;;;;;;;;;5051123;28;20033;-67
2023/01/25 04:07:37;;;;;;;36.67;13.97;;;;;;;;;;5052233;28;20025;-67
2023/01/25 04:10:03;;;;;;;52.40;22.90;;;;;;;;;;5051675;28;20051;-66
2023/01/25 04:12:28;;;;;;;54.60;24.43;;;;;;;;;;5047696;28;20064;-66
2023/01/25 04:14:53;;;;;;;48.87;23.23;;;;;;;;;;5052758;28;20040;-66
2023/01/25 04:17:18;;;;;;;52.00;21.87;;;;;;;-145.18;100.00;114074.00;5051727;28;20025;-66
2023/01/25 04:19:44;;;;;;;54.83;23.53;;;;;;;;;;5050222;28;20037;-67
2023/01/25 04:22:09;;;;;;;54.33;23.17;;;;;;;-145.18;100.00;114074.00;5049314;28;20036;-66
2023/01/25 04:24:35;;;;;;;52.53;22.23;;;;;;;-145.18;100.00;114074.00;5051949;28;20032;-67
2023/01/25 04:27:00;;;;;;;47.53;20.27;;;;;;;-145.18;100.00;114074.00;5052322;28;20029;-67
2023/01/25 04:29:25;;;;;;;50.23;22.77;;;;;;;-145.18;100.00;114074.00;5060665;28;20020;-67
2023/01/25 04:31:51;;;;;;;51.23;21.33;;;;;;;-145.18;100.00;114074.00;5050853;28;20056;-66
2023/01/25 04:34:16;;;;;;;54.03;23.10;;;;;;;-145.18;100.00;114074.00;5051306;28;20379;-66
2023/01/25 04:36:41;;;;;;;55.67;24.90;;;;;;;-145.18;100.00;114074.00;5052806;28;20033;-66
2023/01/25 04:39:07;;;;;;;53.87;23.40;;;;;;;-145.18;100.00;114074.00;5045326;28;20048;-66
2023/01/25 04:41:32;;;;;;;54.10;23.63;;;;;;;-145.18;100.00;114074.00;5050364;28;20036;-66
2023/01/25 04:43:57;;;;;;;48.87;20.87;;;;;;;-145.18;100.00;114074.00;5052671;28;20021;-66
2023/01/25 04:46:23;;;;;;;51.77;22.63;;;;;;;-145.18;100.00;114074.00;5050142;28;20392;-66
2023/01/25 04:48:48;;;;;;;48.13;22.00;;;;;;;-145.18;100.00;114074.00;5046970;28;20021;-67
2023/01/25 04:51:14;;;;;;;50.80;22.63;;;;;;;-145.18;100.00;114074.00;5056931;28;20040;-66
2023/01/25 04:53:39;;;;;;;44.10;20.07;;;;;;;-145.18;100.00;114074.00;5049147;28;20104;-66
2023/01/25 04:56:05;;;;;;;48.17;19.90;;;;;;;-145.18;100.00;114074.00;5053799;28;20518;-67
2023/01/25 04:58:30;;;;;;;39.90;18.93;;;;;;;;;;5051639;28;20020;-66
2023/01/25 05:01:00;;;;;;;41.67;20.33;;;;;;;-145.18;100.00;114074.00;5047616;28;20119;-67
2023/01/25 05:03:25;;;;;;;35.77;15.37;;;;;;;-145.18;100.00;114074.00;5064021;28;20036;-66
2023/01/25 05:05:51;;;;;;;40.00;19.67;;;;;;;-145.18;100.00;114074.00;5049849;28;20543;-67
2023/01/25 05:08:16;;;;;;;34.60;16.30;;;;;;;-145.18;100.00;114074.00;5048302;28;20534;-66
2023/01/25 05:10:42;;;;;;;42.00;20.73;;;;;;;-145.18;100.00;114074.00;5049222;28;20032;-66
2023/01/25 05:13:07;;;;;;;40.30;19.97;;;;;;;-145.18;100.00;114074.00;5048282;28;20158;-66
2023/01/25 05:15:32;;;;;;;41.07;19.83;;;;;;;-145.18;100.00;60484.78;5048817;28;20036;-66
2023/01/25 05:17:58;;;;;;;40.20;17.63;;;;;;;-145.18;100.00;114074.00;5057077;28;20432;-67
2023/01/25 05:20:23;;;;;;;42.53;20.23;;;;;;;-145.18;100.00;114074.00;5053115;28;20108;-66
2023/01/25 05:22:48;;;;;;;40.87;19.83;;;;;;;-145.18;100.00;114074.00;5050920;28;20361;-67
2023/01/25 05:27:58;;;;;;;41.93;19.37;;;;;;;-145.18;100.00;114074.00;5049389;28;20113;-66
2023/01/25 05:30:23;;;;;;;42.67;20.50;;;;;;;;;;5048100;28;21604;-67
2023/01/25 05:32:49;;;;;;;44.50;20.30;;;;;;;-145.18;100.00;114074.00;5053344;28;20050;-66
2023/01/25 05:35:15;;;;;;;44.37;21.47;;;;;;;-145.18;nan;60484.78;5054055;28;20033;-66
2023/01/25 05:37:40;;;;;;;41.97;20.50;;;;;;;-145.18;100.00;60484.78;5048118;28;20365;-66
2023/01/25 05:40:06;;;;;;;42.53;19.53;;;;;;;;;;5048160;28;20056;-66
2023/01/25 05:42:31;;;;;;;42.63;19.03;;;;;;;-145.18;100.00;114074.00;5050998;28;20021;-67
2023/01/25 05:44:56;;;;;;;41.73;20.67;;;;;;;;;;5046186;28;20361;-66
2023/01/25 05:47:22;;;;;;;42.47;19.73;;;;;;;-145.18;100.00;60484.78;5047469;28;20045;-67
2023/01/25 05:49:47;;;;;;;48.23;22.63;;;;;;;;;;5046185;28;20029;-66
2023/01/25 05:52:14;;;;;;;47.33;22.40;;;;;;;-145.18;100.00;114074.00;5050937;28;20041;-66
2023/01/25 05:54:40;;;;;;;46.20;20.93;;;;;;;;;;5048129;28;20029;-66
2023/01/25 05:57:05;;;;;;;49.60;22.57;;;;;;;-145.18;100.00;114074.00;5049656;28;20048;-67
2023/01/25 05:59:30;;;;;;;48.53;21.77;;;;;;;-145.18;100.00;114074.00;5051917;28;20082;-66
2023/01/25 06:01:56;;;;;;;50.17;23.57;;;;;;;;;;5034944;28;20032;-67
2023/01/25 06:04:22;;;;;;;46.33;21.03;;;;;;;-145.18;100.00;114074.00;5048338;28;20061;-66
2023/01/25 06:06:47;;;;;;;42.70;18.67;;;;;;;-145.18;100.00;114074.00;5044293;28;20032;-66
2023/01/25 06:09:13;;;;;;;48.47;21.93;;;;;;;-145.18;100.00;114074.00;5046752;28;20040;-66
2023/01/25 06:11:41;;;;;;;47.27;21.90;;;;;;;-145.18;100.00;114074.00;5054804;28;20028;-67
2023/01/25 06:14:06;;;;;;;49.67;22.50;;;;;;;;;;5045813;28;20033;-66
2023/01/25 06:16:32;;;;;;;47.67;21.20;;;;;;;;;;5047806;28;20392;-67
2023/01/25 06:18:57;;;;;;;46.93;20.40;;;;;;;;;;5049775;28;20052;-66
2023/01/25 06:21:22;;;;;;;45.67;21.47;;;;;;;-145.18;100.00;60484.78;5046199;28;20468;-66
2023/01/25 06:23:48;;;;;;;49.33;23.57;;;;;;;;;;5049823;28;20029;-67
2023/01/25 06:26:13;;;;;;;46.63;22.07;;;;;;;;;;5048730;28;20032;-67
2023/01/25 06:28:39;;;;;;;48.60;21.53;;;;;;;;;;5045762;28;20090;-67
2023/01/25 06:31:07;;;;;;;51.70;24.43;;;;;;;-145.18;100.00;114074.00;5049314;28;20072;-67
2023/01/25 06:33:32;;;;;;;53.17;23.73;;;;;;;-145.18;100.00;114074.00;5049013;28;20032;-67
2023/01/25 06:36:19;;;;;;;49.80;23.40;;;;;;;-145.18;100.00;114074.00;5044263;28;20036;-67
2023/01/25 06:38:49;;;;;;;51.67;23.17;;;;;;;;;;5047423;28;20045;-67
2023/01/25 06:41:14;;;;;;;52.43;23.67;;;;;;;-145.18;100.00;60484.78;5049257;28;20036;-67
2023/01/25 06:43:40;;;;;;;51.17;23.43;;;;;;;-145.18;100.00;114074.00;5050318;28;20345;-67
2023/01/25 06:46:07;;;;;;;54.33;23.63;;;;;;;;;;5044353;28;20025;-67
2023/01/25 06:48:32;;;;;;;52.47;24.17;;;;;;;-145.18;100.00;60484.78;5045101;28;20052;-67
2023/01/25 06:51:02;;;;;;;50.20;22.80;;;;;;;;;;5049745;28;20060;-67
2023/01/25 06:53:31;;;;;;;54.73;24.23;;;;;;;-145.18;100.00;114074.00;5047833;28;20017;-67
2023/01/25 06:56:04;;;;;;;53.07;23.40;;;;;;;-145.18;100.00;114074.00;5041676;28;20079;-66
2023/01/25 06:58:30;;;;;;;46.70;19.70;;;;;;;-145.18;100.00;114074.00;5040702;28;20484;-66
2023/01/25 07:01:03;;;;;;;47.07;20.63;;;;;;;;;;5046322;28;20028;-67
2023/01/25 07:03:30;;;;;;;53.30;24.13;;;;;;;-145.18;100.00;114074.00;5039933;28;20029;-67
2023/01/25 07:06:00;;;;;;;55.87;22.73;;;;;;;-145.18;100.00;114074.00;5035646;28;20026;-67
2023/01/25 07:08:26;;;;;;;51.80;23.17;;;;;;;-145.18;100.00;114074.00;5031233;28;20029;-67
2023/01/25 07:10:57;;;;;;;56.13;24.00;;;;;;;-145.18;100.00;114074.00;5038892;28;20096;-67
2023/01/25 07:13:24;;;;;;;51.43;21.40;;;;;;;-145.18;100.00;114074.00;5051298;28;20025;-67
2023/01/25 07:15:57;;;;;;;54.03;23.87;;;;;;;-145.18;100.00;114074.00;5049704;28;20388;-67
2023/01/25 07:18:23;;;;;;;58.47;24.30;;;;;;;-145.18;100.00;114074.00;5049733;28;20392;-67
2023/01/25 07:20:49;;;;;;;57.03;24.43;;;;;;;-145.18;100.00;114074.00;5049575;28;20053;-67
2023/01/25 07:23:14;;;;;;;65.63;26.50;;;;;;;-145.18;100.00;114074.00;5051185;28;20049;-67
2023/01/25 07:25:47;;;;;;;60.33;24.70;;;;;;;-145.18;100.00;114074.00;5048319;28;20099;-67
2023/01/25 07:28:13;;;;;;;65.97;26.03;;;;;;;-145.18;100.00;114074.00;5050835;28;20445;-67
2023/01/25 07:30:40;;;;;;;75.20;30.20;;;;;;;-145.18;100.00;114074.00;5050683;28;20049;-67
2023/01/25 07:33:05;;;;;;;78.47;30.80;;;;;;;-145.18;100.00;114074.00;5050500;28;20033;-67
2023/01/25 07:35:31;;;;;;;71.70;28.93;;;;;;;-145.18;100.00;114074.00;5045416;28;20051;-66
2023/01/25 07:37:57;;;;;;;71.13;28.53;;;;;;;-145.18;100.00;114074.00;5048597;28;20078;-67
2023/01/25 07:40:24;;;;;;;59.60;26.13;;;;;;;-145.18;100.00;114074.00;5049272;28;20402;-67
2023/01/25 07:42:50;;;;;;;59.63;24.60;;;;;;;-145.18;100.00;114074.00;5051097;28;20029;-67
2023/01/25 07:45:15;;;;;;;57.07;24.20;;;;;;;-145.18;100.00;114074.00;5051259;28;20071;-67
2023/01/25 07:47:41;;;;;;;56.50;23.57;;;;;;;-145.18;100.00;114074.00;5048705;28;21212;-67
2023/01/25 07:50:07;;;;;;;51.23;21.47;;;;;;;-145.18;100.00;114074.00;5034586;28;20036;-67
2023/01/25 07:52:32;;;;;;;67.73;28.53;;;;;;;-145.18;100.00;114074.00;5047434;28;20024;-67
2023/01/25 07:54:58;;;;;;;62.10;24.07;;;;;;;;;;5049855;28;20429;-67
2023/01/25 07:57:24;;;;;;;59.47;25.70;;;;;;;-145.18;100.00;114074.00;5048627;28;20041;-68
2023/01/25 07:59:50;;;;;;;60.97;25.73;;;;;;;-145.18;100.00;114074.00;5050700;28;20028;-68
2023/01/25 08:02:15;;;;;;;65.83;25.80;;;;;;;-145.18;100.00;114074.00;5050759;28;20120;-67
2023/01/25 08:04:41;;;;;;;68.47;28.17;;;;;;;-145.18;100.00;114074.00;5050500;28;20036;-67
2023/01/25 08:07:07;;;;;;;73.07;29.80;;;;;;;-145.18;100.00;148167.88;5049263;28;20030;-69
2023/01/25 08:09:33;;;;;;;68.87;28.23;;;;;;;-145.18;100.00;114074.00;5053032;28;20017;-67
2023/01/25 08:11:58;;;;;;;61.90;25.03;;;;;;;-145.18;100.00;148167.88;5052232;28;20075;-67
2023/01/25 08:14:23;;;;;;;64.53;26.13;;;;;;;-145.18;100.00;114074.00;5053949;28;20017;-68
2023/01/25 08:16:49;;;;;;;62.60;25.07;;;;;;;-145.18;100.00;114074.00;5052603;28;20036;-67
2023/01/25 08:19:14;;;;;;;56.27;24.43;;;;;;;-145.18;100.00;114074.00;5054479;28;20380;-68
2023/01/25 08:21:40;;;;;;;51.97;21.00;;;;;;;-145.18;100.00;148167.88;5050580;28;20354;-67
2023/01/25 08:24:06;;;;;;;68.67;27.37;;;;;;;-145.18;100.00;114074.00;5052202;28;20025;-68
2023/01/25 08:26:33;;;;;;;69.87;25.93;;;;;;;2.86;100.00;148167.88;5048050;28;20469;-68
2023/01/25 08:28:59;;;;;;;70.10;28.27;;;;;;;-145.18;100.00;114074.00;5053353;28;20021;-69
2023/01/25 08:31:31;;;;;;;69.03;27.60;;;;;;;2.86;100.00;148167.88;5032213;28;20128;-68
2023/01/25 08:33:57;;;;;;;63.15;26.13;;;;;;;-145.18;100.00;114074.00;5053002;28;20090;-67
2023/01/25 08:36:23;;;;;;;68.20;27.37;;;;;;;-145.18;100.00;148167.88;5036072;28;20028;-68
2023/01/25 08:38:53;;;;;;;64.37;26.83;;;;;;;2.86;100.00;148167.88;5053246;28;20021;-67
2023/01/25 08:41:19;;;;;;;65.93;26.23;;;;;;;;;;5051646;28;20033;-67
2023/01/25 08:43:45;;;;;;;64.83;27.27;;;;;;;2.86;100.00;148167.88;5049755;28;20507;-68
2023/01/25 08:46:12;;;;;;;69.47;28.30;;;;;;;2.86;100.00;148167.88;5049961;28;20108;-67
2023/01/25 08:48:38;;;;;;;67.17;28.87;;;;;;;;;;5045650;28;20021;-68
2023/01/25 08:51:06;;;;;;;66.53;27.97;;;;;;;-145.18;100.00;114074.00;5052217;28;20044;-67
2023/01/25 08:53:32;;;;;;;70.33;29.20;;;;;;;2.86;100.00;148167.88;5049706;28;20029;-67
2023/01/25 08:56:08;;;;;;;71.33;28.57;;;;;;;-145.18;100.00;114074.00;5051672;28;20028;-68
2023/01/25 08:58:37;;;;;;;72.00;28.63;;;;;;;-145.18;100.00;114074.00;5053493;28;20506;-68
2023/01/25 09:01:05;;;;;;;72.60;30.50;;;;;;;-145.18;100.00;114074.00;5053642;28;20111;-67
2023/01/25 09:03:33;;;;;;;64.67;27.77;;;;;;;-145.18;100.00;114074.00;5037693;28;20068;-67
2023/01/25 09:05:59;;;;;;;73.13;28.57;;;;;;;-145.18;100.00;114074.00;5043330;28;20037;-67
2023/01/25 09:08:24;;;;;;;61.83;25.53;;;;;;;-145.18;100.00;114074.00;5053075;28;20630;-67
2023/01/25 09:10:50;;;;;;;58.43;25.97;;;;;;;-145.18;100.00;114074.00;5051569;28;20151;-67
2023/01/25 09:13:15;;;;;;;64.87;28.00;;;;;;;-145.18;100.00;114074.00;5051337;28;20021;-67
2023/01/25 09:15:40;;;;;;;53.03;21.73;;;;;;;-145.18;100.00;114074.00;5052564;28;20464;-67
2023/01/25 09:18:05;;;;;;;54.60;22.37;;;;;;;;;;5052877;28;20016;-68
2023/01/25 09:20:31;;;;;;;66.93;27.27;;;;;;;-145.18;100.00;114074.00;5045793;28;20096;-67
2023/01/25 09:22:56;;;;;;;70.87;28.73;;;;;;;-145.18;100.00;114074.00;5052866;28;20379;-67
2023/01/25 09:25:22;;;;;;;58.80;23.37;;;;;;;;;;5052148;28;20033;-67
2023/01/25 09:27:50;;;;;;;55.43;24.00;;;;;;;-145.18;100.00;114074.00;5051397;28;20036;-66
2023/01/25 09:30:16;;;;;;;55.00;22.93;;;;;;;;;;5051444;28;20029;-67
2023/01/25 09:32:41;;;;;;;64.77;28.37;;;;;;;;;;5052605;28;20487;-67
2023/01/25 09:35:07;;;;;;;60.00;25.50;;;;;;;;;;5052617;28;20548;-68
2023/01/25 09:37:32;;;;;;;58.67;25.00;;;;;;;-145.18;100.00;114074.00;5047526;28;20033;-68
2023/01/25 09:39:57;;;;;;;61.73;25.80;;;;;;;-145.18;100.00;114074.00;5051359;28;20123;-67
2023/01/25 09:42:26;;;;;;;58.10;25.50;;;;;;;;;;5051823;28;20468;-68
2023/01/25 09:45:21;;;;;;;55.90;23.07;;;;;;;-145.18;100.00;114074.00;5052081;28;20350;-67
2023/01/25 09:48:12;;;;;;;55.83;24.50;;;;;;;-145.18;100.00;114074.00;5036001;28;20025;-68
2023/01/25 09:51:19;;;;;;;61.40;23.47;;;;;;;-145.18;100.00;114074.00;5047439;28;20029;-67
2023/01/25 09:53:51;;;;;;;65.37;26.17;;;;;;;-145.18;100.00;114074.00;5031936;28;20408;-68
2023/01/25 09:56:32;;;;;;;57.60;25.17;;;;;;;-145.18;100.00;114074.00;5045117;28;20024;-68
2023/01/25 09:59:03;;;;;;;52.60;20.97;;;;;;;-145.18;100.00;114074.00;5051254;28;20029;-67
2023/01/25 10:01:54;;;;;;;47.25;20.90;;;;;;;-145.18;100.00;114074.00;5052542;28;20033;-68
2023/01/25 10:04:29;;;;;;;48.40;20.10;;;;;;;-145.18;100.00;114074.00;5051852;28;20029;-67
2023/01/25 10:07:25;;;;;;;57.70;22.93;;;;;;;-145.18;100.00;148167.88;5051205;28;20032;-67
2023/01/25 10:10:05;;;;;;;56.37;23.67;;;;;;;-145.18;100.00;148167.88;5049922;28;20112;-66
2023/01/25 10:12:36;;;;;;;56.13;22.20;;;;;;;-145.18;100.00;114074.00;5051960;28;20025;-67
2023/01/25 10:15:32;;;;;;;57.08;23.88;;;;;;;-145.18;100.00;114074.00;5051490;28;20021;-67
2023/01/25 10:18:15;;;;;;;56.60;23.50;;;;;;;-145.18;100.00;114074.00;5045392;28;20051;-67
2023/01/25 10:20:53;;;;;;;57.70;25.67;;;;;;;-145.18;100.00;114074.00;5051839;28;20033;-67
2023/01/25 10:23:21;;;;;;;59.53;25.07;;;;;;;-145.18;100.00;114074.00;5043911;28;20037;-67
2023/01/25 10:25:58;;;;;;;58.67;25.70;;;;;;;-145.18;100.00;114074.00;5045757;28;20111;-68
2023/01/25 10:28:49;;;;;;;63.33;31.10;;;;;;;-145.18;100.00;114074.00;5032191;28;20171;-67
2023/01/25 10:31:24;;;;;;;61.50;26.33;;;;;;;-145.18;100.00;114074.00;5025043;28;20203;-68
2023/01/25 10:33:51;;;;;;;62.90;26.67;;;;;;;-145.18;100.00;114074.00;5033881;28;20037;-68
2023/01/25 10:36:26;;;;;;;61.43;26.77;;;;;;;-145.18;100.00;114074.00;5044562;28;20029;-68
2023/01/25 10:38:58;;;;;;;55.97;22.93;;;;;;;-145.18;100.00;114074.00;5033292;28;20087;-67
2023/01/25 10:41:37;;;;;;;67.77;29.53;;;;;;;-145.18;100.00;114074.00;5049496;28;20136;-67
2023/01/25 10:44:21;;;;;;;59.63;27.03;;;;;;;-145.18;100.00;114074.00;5049317;28;20031;-67
2023/01/25 10:46:53;;;;;;;56.07;24.23;;;;;;;-145.18;100.00;114074.00;5051433;28;20025;-67
2023/01/25 10:49:34;;;;;;;61.43;29.03;;;;;;;-145.18;100.00;114074.00;5051340;28;20021;-67
2023/01/25 10:52:30;;;;;;;64.55;28.88;;;;;;;-145.18;100.00;114074.00;5048974;28;20108;-67
2023/01/25 10:55:15;;;;;;;56.70;25.63;;;;;;;-145.18;100.00;114074.00;5032762;28;20069;-68
2023/01/25 10:57:47;;;;;;;63.53;26.20;;;;;;;-145.18;100.00;114074.00;5037647;28;20037;-67
2023/01/25 11:00:33;;;;;;;64.43;28.10;;;;;;;-145.18;100.00;114074.00;5031639;28;20064;-67
2023/01/25 11:02:59;;;;;;;64.97;28.57;;;;;;;;;;5034835;28;20025;-67
2023/01/25 11:05:32;;;;;;;58.83;24.73;;;;;;;-145.18;100.00;114074.00;5049286;28;20033;-67
2023/01/25 11:08:13;;;;;;;57.00;23.90;;;;;;;-145.18;100.00;114074.00;5048463;28;20463;-67
2023/01/25 11:10:44;;;;;;;50.13;21.27;;;;;;;-145.18;100.00;114074.00;5042129;28;20233;-68
2023/01/25 11:13:12;;;;;;;58.77;26.20;;;;;;;-145.18;100.00;114074.00;5050534;28;20492;-67
2023/01/25 11:15:39;;;;;;;62.23;26.50;;;;;;;-145.18;100.00;114074.00;5050010;28;20045;-67
2023/01/25 11:18:10;;;;;;;59.63;27.13;;;;;;;-145.18;100.00;114074.00;5051193;28;20092;-67
2023/01/25 11:20:35;;;;;;;57.67;26.52;;;;;;;-145.18;100.00;114074.00;5049884;28;20833;-68
2023/01/25 11:23:01;;;;;;;63.67;27.07;;;;;;;-145.18;100.00;114074.00;5049966;28;20120;-67
2023/01/25 11:25:28;;;;;;;72.43;29.90;;;;;;;-145.18;100.00;114074.00;5048722;28;20048;-68
2023/01/25 11:28:19;;;;;;;63.80;27.90;;;;;;;-145.18;100.00;114074.00;5051009;28;20025;-67
2023/01/25 11:30:45;;;;;;;60.28;26.48;;;;;;;-145.18;100.00;114074.00;5048966;28;20487;-67
2023/01/25 11:33:13;;;;;;;54.13;24.83;;;;;;;-145.18;100.00;114074.00;5051040;28;20029;-67
2023/01/25 11:35:46;;;;;;;59.90;27.07;;;;;;;-145.18;100.00;114074.00;5050988;28;20120;-68
2023/01/25 11:38:20;;;;;;;58.10;24.00;;;;;;;-145.18;100.00;114074.00;5045673;28;20108;-67